Time;durP1;ratioP1;P1;durP2;ratioP2;P2;SDS_P1;SDS_P2;PMS_P1;PMS_P2;Temp;Humidity;BMP_temperature;BMP_pressure;BME280_temperature;BME280_humidity;BME280_pressure;Samples;Min_cycle;Max_cycle;Signal;HPM_P1;HPM_P2
2022/03/27 00:00:15;;;;;;;;;;;13.20;36.00;;;;;;4996033;28;19964;-63
2022/03/27 00:02:42;;;;;;;;;;;13.10;36.40;;;;;;4995980;28;20005;-63
2022/03/27 00:05:08;;;;;;;;;;;13.10;36.30;;;;;;4996048;28;20424;-63
2022/03/27 00:07:34;;;;;;;;;;;13.20;35.30;;;;;;4996041;28;20017;-64
2022/03/27 00:09:59;;;;;;;;;;;13.20;36.20;;;;;;4995951;28;19934;-64
2022/03/27 00:12:25;;;;;;;;;;;13.30;34.90;;;;;;4995889;28;19910;-63
2022/03/27 00:14:50;;;;;;;;;;;13.50;34.50;;;;;;4995892;28;19921;-63
2022/03/27 00:17:18;;;;;;;;;;;13.70;33.50;;;;;;4996186;28;19910;-63
2022/03/27 00:19:44;;;;;;;;;;;13.80;33.20;;;;;;4995777;28;19917;-64
2022/03/27 00:22:09;;;;;;;;;;;13.60;33.70;;;;;;4995692;28;19917;-65
2022/03/27 00:24:35;;;;;;;;;;;13.50;34.20;;;;;;4995998;28;19917;-63
2022/03/27 00:27:01;;;;;;;;;;;13.30;34.90;;;;;;4995848;28;19933;-63
2022/03/27 00:29:27;;;;;;;;;;;13.20;35.50;;;;;;4995638;28;19910;-63
2022/03/27 00:31:53;;;;;;;;;;;13.30;35.40;;;;;;4995498;28;20203;-64
2022/03/27 00:34:21;;;;;;;;;;;13.50;34.40;;;;;;4995489;28;19976;-63
2022/03/27 00:36:47;;;;;;;;;;;13.50;33.60;;;;;;4995755;28;20265;-63
2022/03/27 00:39:12;;;;;;;;;;;13.60;33.30;;;;;;4995599;28;19910;-62
2022/03/27 00:41:38;;;;;;;;;;;13.60;32.80;;;;;;4994281;28;19921;-63
2022/03/27 00:44:04;;;;;;;;;;;13.70;33.10;;;;;;4995369;28;19910;-63
2022/03/27 00:46:29;;;;;;;;;;;13.60;33.10;;;;;;4995596;28;20063;-63
2022/03/27 00:48:55;;;;;;;;;;;13.50;34.00;;;;;;4995179;28;20369;-63
2022/03/27 00:51:20;;;;;;;;;;;13.60;32.90;;;;;;4995349;28;19910;-64
2022/03/27 00:53:46;;;;;;;;;;;13.60;33.00;;;;;;4995697;28;19918;-64
2022/03/27 00:56:12;;;;;;;;;;;13.30;34.30;;;;;;4995224;28;19910;-65
2022/03/27 00:58:37;;;;;;;;;;;13.10;35.20;;;;;;4995261;28;19914;-63
2022/03/27 01:01:25;;;;;;;;;;;13.00;35.90;;;;;;4995128;28;19910;-64
2022/03/27 01:03:53;;;;;;;;;;;12.80;35.80;;;;;;4995348;28;19916;-63
2022/03/27 01:06:32;;;;;;;;;;;12.80;36.00;;;;;;4994854;28;19913;-63
2022/03/27 01:11:43;;;;;;;;;;;13.00;35.20;;;;;;4995352;28;19917;-63
2022/03/27 01:14:12;;;;;;;;;;;13.10;34.00;;;;;;4994689;28;19918;-64
2022/03/27 01:16:39;;;;;;;;;;;13.40;33.00;;;;;;4994975;28;19964;-63
2022/03/27 01:19:05;;;;;;;;;;;13.40;33.10;;;;;;4996819;28;19949;-65
2022/03/27 01:21:31;;;;;;;;;;;13.40;33.20;;;;;;4998869;28;19932;-63
2022/03/27 01:23:56;;;;;;;;;;;13.50;32.90;;;;;;4998063;28;19946;-63
2022/03/27 01:26:23;;;;;;;;;;;13.60;32.80;;;;;;4996141;28;19964;-63
2022/03/27 01:28:49;;;;;;;;;;;13.60;32.50;;;;;;4996609;28;19914;-64
2022/03/27 01:31:15;;;;;;;;;;;13.30;33.20;;;;;;4996863;28;19922;-63
2022/03/27 01:33:40;;;;;;;;;;;13.20;33.60;;;;;;4994555;28;20377;-63
2022/03/27 01:36:06;;;;;;;;;;;13.30;33.10;;;;;;4993579;28;19910;-63
2022/03/27 01:38:31;;;;;;;;;;;13.40;32.80;;;;;;4994854;28;19914;-63
2022/03/27 01:40:57;;;;;;;;;;;13.30;33.20;;;;;;4994641;28;19914;-63
2022/03/27 01:43:23;;;;;;;;;;;13.20;33.20;;;;;;4994399;28;19910;-63
2022/03/27 01:45:49;;;;;;;;;;;13.10;33.90;;;;;;4994568;28;19916;-64
2022/03/27 01:48:15;;;;;;;;;;;12.80;35.10;;;;;;4994436;28;20289;-64
2022/03/27 01:50:40;;;;;;;;;;;12.60;35.70;;;;;;4994352;28;19910;-63
2022/03/27 01:53:06;;;;;;;;;;;12.40;36.70;;;;;;4994604;28;19921;-63
2022/03/27 01:55:32;;;;;;;;;;;12.40;36.10;;;;;;4994478;28;20000;-64
2022/03/27 01:57:57;;;;;;;;;;;12.20;36.90;;;;;;4994352;28;19913;-63
2022/03/27 02:00:23;;;;;;;;;;;12.00;37.90;;;;;;4999062;28;19910;-63
2022/03/27 02:02:48;;;;;;;;;;;12.00;37.40;;;;;;4999675;28;19910;-64
2022/03/27 02:05:14;;;;;;;;;;;11.90;37.60;;;;;;5001135;28;19917;-63
2022/03/27 02:07:42;;;;;;;;;;;11.80;38.10;;;;;;5001016;28;19972;-63
2022/03/27 02:10:08;;;;;;;;;;;11.80;38.90;;;;;;5000520;28;19910;-64
2022/03/27 02:12:34;;;;;;;;;;;11.70;38.60;;;;;;5000950;28;19965;-64
2022/03/27 02:15:00;;;;;;;;;;;11.60;38.70;;;;;;5001002;28;19917;-65
2022/03/27 02:17:26;;;;;;;;;;;11.50;39.20;;;;;;5000885;28;20309;-63
2022/03/27 02:19:51;;;;;;;;;;;11.40;39.60;;;;;;5000709;28;19909;-63
2022/03/27 02:22:17;;;;;;;;;;;11.30;40.30;;;;;;5000702;28;20005;-63
2022/03/27 02:24:42;;;;;;;;;;;11.20;40.10;;;;;;5000736;28;19914;-63
2022/03/27 02:27:08;;;;;;;;;;;11.20;40.70;;;;;;5000740;28;19964;-62
2022/03/27 02:29:33;;;;;;;;;;;11.20;41.40;;;;;;5000710;28;20000;-62
2022/03/27 02:31:59;;;;;;;;;;;11.20;41.00;;;;;;5000698;28;19972;-62
2022/03/27 02:34:26;;;;;;;;;;;11.20;40.00;;;;;;5000665;28;19918;-63
2022/03/27 02:36:51;;;;;;;;;;;11.20;39.90;;;;;;5000504;28;19964;-63
2022/03/27 02:39:17;;;;;;;;;;;11.20;39.70;;;;;;5000376;28;19913;-63
2022/03/27 02:41:43;;;;;;;;;;;11.30;40.20;;;;;;5000730;28;20008;-65
2022/03/27 02:44:09;;;;;;;;;;;11.20;40.70;;;;;;5000534;28;19913;-63
2022/03/27 02:46:35;;;;;;;;;;;11.20;41.30;;;;;;5000440;28;19917;-63
2022/03/27 02:49:00;;;;;;;;;;;11.20;41.20;;;;;;5000241;28;19910;-63
2022/03/27 02:51:26;;;;;;;;;;;11.10;41.40;;;;;;5000553;28;19910;-64
2022/03/27 02:53:52;;;;;;;;;;;11.00;41.20;;;;;;5000159;28;19917;-62
2022/03/27 02:56:17;;;;;;;;;;;11.00;40.90;;;;;;5000603;28;19976;-63
2022/03/27 02:58:43;;;;;;;;;;;11.10;40.80;;;;;;5000676;28;19932;-63
2022/03/27 03:01:08;;;;;;;;;;;11.00;41.00;;;;;;5000602;28;20485;-63
2022/03/27 03:03:34;;;;;;;;;;;11.00;41.20;;;;;;5000392;28;19916;-63
2022/03/27 03:06:01;;;;;;;;;;;10.90;41.40;;;;;;5000253;28;19916;-63
2022/03/27 03:08:27;;;;;;;;;;;11.00;40.50;;;;;;5000313;28;19910;-64
2022/03/27 03:10:53;;;;;;;;;;;11.30;39.30;;;;;;4998120;28;19937;-63
2022/03/27 03:13:18;;;;;;;;;;;11.20;39.90;;;;;;4997240;28;19949;-62
2022/03/27 03:15:44;;;;;;;;;;;11.20;40.10;;;;;;4997190;28;19940;-63
2022/03/27 03:18:10;;;;;;;;;;;11.20;39.60;;;;;;4997067;28;19964;-63
2022/03/27 03:20:37;;;;;;;;;;;11.30;38.60;;;;;;4997113;28;19910;-63
2022/03/27 03:23:03;;;;;;;;;;;11.50;38.50;;;;;;4997130;28;19952;-67
2022/03/27 03:25:29;;;;;;;;;;;11.30;38.80;;;;;;4996884;28;20418;-62
2022/03/27 03:27:56;;;;;;;;;;;11.40;39.10;;;;;;4997147;28;19914;-63
2022/03/27 03:30:22;;;;;;;;;;;11.40;38.90;;;;;;4997241;28;20048;-63
2022/03/27 03:32:48;;;;;;;;;;;11.60;38.60;;;;;;4995358;28;19934;-63
2022/03/27 03:35:14;;;;;;;;;;;11.70;38.10;;;;;;4996993;28;20021;-64
2022/03/27 03:37:40;;;;;;;;;;;11.80;37.90;;;;;;4996586;28;19917;-63
2022/03/27 03:40:07;;;;;;;;;;;11.90;37.20;;;;;;4996480;28;19910;-63
2022/03/27 03:42:33;;;;;;;;;;;12.00;37.10;;;;;;4996832;28;19910;-65
2022/03/27 03:44:58;;;;;;;;;;;12.00;36.60;;;;;;4996823;28;19997;-63
2022/03/27 03:47:24;;;;;;;;;;;12.00;36.80;;;;;;4996888;28;20397;-64
2022/03/27 03:49:49;;;;;;;;;;;12.10;37.10;;;;;;4996348;28;20377;-63
2022/03/27 03:52:15;;;;;;;;;;;12.00;36.90;;;;;;4996331;28;20422;-63
2022/03/27 03:54:40;;;;;;;;;;;11.80;37.70;;;;;;4996507;28;19964;-63
2022/03/27 03:57:06;;;;;;;;;;;11.70;37.80;;;;;;4996496;28;19953;-63
2022/03/27 03:59:33;;;;;;;;;;;11.90;37.20;;;;;;4996343;28;19917;-64
2022/03/27 04:01:59;;;;;;;;;;;11.70;37.80;;;;;;4996307;28;19914;-63
2022/03/27 04:04:25;;;;;;;;;;;11.60;37.40;;;;;;4996394;28;19909;-63
2022/03/27 04:06:51;;;;;;;;;;;11.60;37.30;;;;;;4996211;28;19910;-66
2022/03/27 04:09:16;;;;;;;;;;;11.70;36.90;;;;;;4996098;28;19910;-63
2022/03/27 04:11:43;;;;;;;;;;;11.80;36.70;;;;;;4995953;28;20381;-63
2022/03/27 04:14:09;;;;;;;;;;;11.80;37.10;;;;;;4996001;28;19964;-64
2022/03/27 04:16:34;;;;;;;;;;;11.90;37.10;;;;;;4996249;28;19980;-63
2022/03/27 04:19:00;;;;;;;;;;;12.00;36.40;;;;;;4995973;28;19910;-63
2022/03/27 04:21:26;;;;;;;;;;;12.10;36.50;;;;;;4995828;28;19910;-63
2022/03/27 04:23:52;;;;;;;;;;;12.10;35.90;;;;;;4995608;28;19910;-63
2022/03/27 04:26:18;;;;;;;;;;;12.30;35.80;;;;;;4996081;28;20313;-62
2022/03/27 04:28:44;;;;;;;;;;;12.20;36.00;;;;;;4995842;28;19916;-62
2022/03/27 04:31:09;;;;;;;;;;;12.30;35.50;;;;;;4995786;28;20316;-63
2022/03/27 04:33:35;;;;;;;;;;;12.40;35.30;;;;;;4995747;28;19925;-62
2022/03/27 04:36:02;;;;;;;;;;;12.40;35.20;;;;;;4995519;28;19910;-63
2022/03/27 04:38:28;;;;;;;;;;;12.30;35.30;;;;;;4995858;28;19914;-63
2022/03/27 04:40:53;;;;;;;;;;;12.30;35.40;;;;;;4995867;28;20376;-63
2022/03/27 04:43:22;;;;;;;;;;;12.40;35.30;;;;;;4995657;28;20373;-63
2022/03/27 04:45:48;;;;;;;;;;;12.20;35.80;;;;;;4995407;28;20310;-64
2022/03/27 04:48:14;;;;;;;;;;;11.90;36.50;;;;;;4995370;28;19910;-64
2022/03/27 04:50:39;;;;;;;;;;;11.90;36.90;;;;;;4995277;28;20350;-63
2022/03/27 04:53:05;;;;;;;;;;;11.70;36.90;;;;;;4995247;28;19917;-63
2022/03/27 04:55:31;;;;;;;;;;;11.70;37.50;;;;;;4995352;28;19980;-64
2022/03/27 04:57:56;;;;;;;;;;;11.70;36.60;;;;;;4995254;28;20369;-63
2022/03/27 05:00:22;;;;;;;;;;;11.70;36.50;;;;;;4995142;28;19948;-64
2022/03/27 05:02:47;;;;;;;;;;;11.80;36.60;;;;;;4995296;28;20083;-62
2022/03/27 05:05:13;;;;;;;;;;;12.00;36.20;;;;;;4994896;28;20311;-64
2022/03/27 05:07:39;;;;;;;;;;;12.10;35.30;;;;;;4995217;28;20292;-63
2022/03/27 05:10:05;;;;;;;;;;;12.30;35.00;;;;;;4994869;28;19909;-63
2022/03/27 05:12:31;;;;;;;;;;;12.20;34.80;;;;;;4994950;28;19924;-63
2022/03/27 05:14:57;;;;;;;;;;;12.00;35.60;;;;;;4994880;28;20309;-63
2022/03/27 05:17:23;;;;;;;;;;;11.80;36.60;;;;;;4994744;28;20322;-63
2022/03/27 05:19:48;;;;;;;;;;;11.90;36.30;;;;;;4994556;28;19937;-63
2022/03/27 05:22:14;;;;;;;;;;;11.80;37.10;;;;;;4994918;28;19916;-63
2022/03/27 05:24:40;;;;;;;;;;;11.80;37.50;;;;;;4994781;28;20404;-62
2022/03/27 05:27:06;;;;;;;;;;;11.80;37.70;;;;;;4994837;28;19909;-63
2022/03/27 05:29:31;;;;;;;;;;;11.60;38.80;;;;;;4994607;28;19916;-63
2022/03/27 05:31:58;;;;;;;;;;;11.50;39.70;;;;;;4994556;28;20052;-63
2022/03/27 05:34:24;;;;;;;;;;;11.30;39.80;;;;;;4994052;28;20013;-63
2022/03/27 05:36:49;;;;;;;;;;;11.20;40.60;;;;;;4995114;28;19965;-63
2022/03/27 05:39:16;;;;;;;;;;;11.10;41.50;;;;;;4994739;28;20374;-63
2022/03/27 05:41:41;;;;;;;;;;;11.00;42.20;;;;;;4994433;28;20037;-63
2022/03/27 05:44:07;;;;;;;;;;;11.10;41.40;;;;;;4994722;28;19956;-62
2022/03/27 05:46:32;;;;;;;;;;;11.10;41.40;;;;;;4994429;28;19910;-64
2022/03/27 05:48:58;;;;;;;;;;;11.10;42.10;;;;;;4994267;28;19921;-63
2022/03/27 05:51:24;;;;;;;;;;;11.00;43.00;;;;;;4994707;28;19918;-63
2022/03/27 05:53:49;;;;;;;;;;;11.10;42.70;;;;;;4994323;28;20012;-63
2022/03/27 05:56:15;;;;;;;;;;;11.10;42.50;;;;;;4994209;28;19997;-63
2022/03/27 05:58:40;;;;;;;;;;;11.20;41.50;;;;;;4994469;28;19953;-63
2022/03/27 06:01:06;;;;;;;;;;;11.60;38.40;;;;;;4994450;28;19965;-63
2022/03/27 06:03:32;;;;;;;;;;;11.90;37.30;;;;;;4994418;28;19917;-63
2022/03/27 06:05:58;;;;;;;;;;;12.10;36.60;;;;;;4996090;28;19917;-63
2022/03/27 06:08:23;;;;;;;;;;;12.30;35.90;;;;;;4999034;28;19949;-62
2022/03/27 06:10:49;;;;;;;;;;;12.40;35.90;;;;;;4997707;28;19940;-63
2022/03/27 06:13:16;;;;;;;;;;;12.40;35.90;;;;;;4995549;28;20003;-63
2022/03/27 06:15:42;;;;;;;;;;;12.40;36.10;;;;;;4994875;28;20048;-63
2022/03/27 06:18:11;;;;;;;;;;;12.50;36.50;;;;;;4994908;28;19961;-63
2022/03/27 06:20:36;;;;;;;;;;;12.30;37.90;;;;;;4994438;28;19910;-63
2022/03/27 06:23:03;;;;;;;;;;;12.40;38.20;;;;;;4994030;28;19916;-62
2022/03/27 06:25:29;;;;;;;;;;;12.30;39.20;;;;;;4994066;28;19914;-63
2022/03/27 06:27:55;;;;;;;;;;;12.20;40.10;;;;;;4994072;28;20000;-62
2022/03/27 06:30:22;;;;;;;;;;;12.30;40.30;;;;;;4993844;28;20388;-62
2022/03/27 06:32:48;;;;;;;;;;;12.60;39.80;;;;;;4993716;28;20436;-63
2022/03/27 06:35:16;;;;;;;;;;;12.80;40.80;;;;;;4994417;28;19917;-63
2022/03/27 06:37:42;;;;;;;;;;;13.10;38.90;;;;;;4994216;28;19910;-64
2022/03/27 06:40:09;;;;;;;;;;;13.40;38.90;;;;;;4993866;28;19914;-67
2022/03/27 06:42:35;;;;;;;;;;;13.90;46.40;;;;;;4994074;28;19909;-74
2022/03/27 06:45:00;;;;;;;;;;;14.20;39.50;;;;;;4993985;28;20424;-67
2022/03/27 06:47:27;;;;;;;;;;;14.50;39.00;;;;;;4997504;28;19909;-63
2022/03/27 06:49:53;;;;;;;;;;;14.80;37.30;;;;;;4997552;28;19909;-77
2022/03/27 06:52:19;;;;;;;;;;;15.10;38.00;;;;;;4997455;28;19914;-75
2022/03/27 06:54:45;;;;;;;;;;;15.30;34.70;;;;;;4997402;28;19925;-65
2022/03/27 06:57:10;;;;;;;;;;;15.50;34.70;;;;;;4997639;28;20314;-64
2022/03/27 07:05:04;;;;;;;;;;;15.80;35.70;;;;;;4997416;28;19933;-65
2022/03/27 07:07:30;;;;;;;;;;;16.10;33.90;;;;;;4996875;28;19910;-66
2022/03/27 07:09:56;;;;;;;;;;;16.30;34.00;;;;;;4997204;28;19910;-63
2022/03/27 07:12:22;;;;;;;;;;;16.40;31.30;;;;;;4996947;28;19972;-60
2022/03/27 07:14:49;;;;;;;;;;;16.20;33.20;;;;;;4997228;28;19918;-65
2022/03/27 07:17:17;;;;;;;;;;;16.30;32.10;;;;;;4995950;28;19940;-79
2022/03/27 07:19:44;;;;;;;;;;;16.50;31.30;;;;;;4997196;28;20277;-63
2022/03/27 07:22:10;;;;;;;;;;;16.60;32.30;;;;;;4996777;28;19909;-62
2022/03/27 07:24:35;;;;;;;;;;;16.70;32.10;;;;;;4996988;28;20061;-64
2022/03/27 07:27:02;;;;;;;;;;;17.00;31.20;;;;;;4997061;28;20013;-68
2022/03/27 07:29:30;;;;;;;;;;;17.20;31.00;;;;;;4997114;28;19920;-75
2022/03/27 07:31:56;;;;;;;;;;;17.40;30.30;;;;;;4996857;28;19922;-76
2022/03/27 07:34:21;;;;;;;;;;;17.70;30.50;;;;;;4996806;28;19972;-70
2022/03/27 07:36:47;;;;;;;;;;;17.90;29.60;;;;;;4997122;28;19964;-68
2022/03/27 07:39:12;;;;;;;;;;;17.90;30.10;;;;;;4996856;28;19914;-77
2022/03/27 07:41:40;;;;;;;;;;;18.10;30.70;;;;;;4996883;28;19964;-64
2022/03/27 07:44:06;;;;;;;;;;;18.10;29.40;;;;;;4988721;28;20436;-67
2022/03/27 07:46:32;;;;;;;;;;;18.00;29.90;;;;;;4987485;28;19921;-70
2022/03/27 07:48:57;;;;;;;;;;;18.10;29.30;;;;;;4988220;28;19910;-73
2022/03/27 07:51:23;;;;;;;;;;;17.90;29.00;;;;;;4996629;28;19910;-63
2022/03/27 07:53:49;;;;;;;;;;;17.60;29.00;;;;;;4996649;28;19918;-63
2022/03/27 07:56:14;;;;;;;;;;;17.60;30.00;;;;;;4996429;28;19917;-63
2022/03/27 07:58:40;;;;;;;;;;;17.70;29.70;;;;;;4995637;28;19918;-65
2022/03/27 08:01:06;;;;;;;;;;;17.90;29.60;;;;;;4995205;28;19921;-63
2022/03/27 08:03:33;;;;;;;;;;;18.10;29.50;;;;;;4995704;28;19917;-65
2022/03/27 08:05:59;;;;;;;;;;;18.10;29.40;;;;;;4995463;28;19914;-62
2022/03/27 08:08:25;;;;;;;;;;;18.00;29.40;;;;;;4995856;28;19916;-61
2022/03/27 08:10:50;;;;;;;;;;;18.00;29.00;;;;;;4995778;28;19914;-61
2022/03/27 08:13:16;;;;;;;;;;;18.00;29.60;;;;;;4996269;28;19914;-62
2022/03/27 08:15:41;;;;;;;;;;;18.00;29.30;;;;;;4996225;28;20377;-61
2022/03/27 08:18:08;;;;;;;;;;;17.90;29.60;;;;;;4996114;28;19914;-61
2022/03/27 08:20:34;;;;;;;;;;;18.00;29.70;;;;;;4995788;28;20393;-63
2022/03/27 08:23:01;;;;;;;;;;;17.70;30.00;;;;;;4996258;28;19909;-64
2022/03/27 08:28:11;;;;;;;;;;;17.90;29.20;;;;;;4996142;28;19925;-62
2022/03/27 08:30:37;;;;;;;;;;;17.80;28.90;;;;;;4995540;28;20000;-61
2022/03/27 08:33:03;;;;;;;;;;;17.70;29.70;;;;;;4995757;28;20456;-62
2022/03/27 08:35:29;;;;;;;;;;;17.50;29.00;;;;;;4995628;28;19921;-63
2022/03/27 08:37:54;;;;;;;;;;;17.40;29.90;;;;;;4995533;28;19910;-63
2022/03/27 08:40:20;;;;;;;;;;;17.60;33.30;;;;;;4994309;28;19910;-61
2022/03/27 08:42:46;;;;;;;;;;;17.30;30.20;;;;;;4995676;28;19988;-62
2022/03/27 08:45:12;;;;;;;;;;;17.30;31.30;;;;;;4995737;28;20014;-62
2022/03/27 08:47:38;;;;;;;;;;;17.50;31.10;;;;;;4995500;28;20369;-62
2022/03/27 08:50:27;;;;;;;;;;;17.60;31.40;;;;;;4995436;28;19910;-61
2022/03/27 08:52:57;;;;;;;;;;;17.70;31.20;;;;;;4993984;28;20315;-61
2022/03/27 08:55:43;;;;;;;;;;;17.80;30.60;;;;;;4995194;28;20370;-62
2022/03/27 08:58:10;;;;;;;;;;;18.10;31.10;;;;;;4995063;28;20297;-63
2022/03/27 09:00:36;;;;;;;;;;;18.30;31.10;;;;;;4995267;28;19917;-63
2022/03/27 09:03:02;;;;;;;;;;;18.60;30.50;;;;;;4995159;28;20004;-61
2022/03/27 09:05:28;;;;;;;;;;;18.40;31.10;;;;;;4995211;28;19949;-62
2022/03/27 09:07:55;;;;;;;;;;;18.50;32.10;;;;;;4994963;28;19957;-63
2022/03/27 09:10:22;;;;;;;;;;;18.60;31.70;;;;;;4994364;28;19910;-62
2022/03/27 09:12:47;;;;;;;;;;;18.40;30.90;;;;;;4994970;28;19910;-61
2022/03/27 09:15:14;;;;;;;;;;;18.00;30.60;;;;;;4994954;28;19929;-64
2022/03/27 09:17:56;;;;;;;;;;;18.10;31.10;;;;;;4994803;28;19910;-68
2022/03/27 09:20:30;;;;;;;;;;;18.30;30.20;;;;;;4994802;28;19917;-66
2022/03/27 09:23:04;;;;;;;;;;;18.70;29.50;;;;;;4994905;28;20366;-65
2022/03/27 09:25:41;;;;;;;;;;;18.90;27.80;;;;;;4993934;28;19922;-63
2022/03/27 09:28:06;;;;;;;;;;;19.10;27.50;;;;;;4994034;28;20057;-63
2022/03/27 09:30:36;;;;;;;;;;;18.60;27.00;;;;;;4993999;28;19945;-63
2022/03/27 09:33:02;;;;;;;;;;;18.40;27.20;;;;;;4993895;28;19926;-64
2022/03/27 09:35:28;;;;;;;;;;;18.30;27.60;;;;;;4994265;28;20008;-63
2022/03/27 09:37:54;;;;;;;;;;;18.40;28.30;;;;;;4991605;28;20434;-64
2022/03/27 09:40:19;;;;;;;;;;;18.50;28.90;;;;;;4993781;28;19910;-65
2022/03/27 09:42:47;;;;;;;;;;;18.50;28.80;;;;;;4994086;28;20329;-67
2022/03/27 09:45:15;;;;;;;;;;;18.40;29.00;;;;;;4989185;28;19910;-69
2022/03/27 09:47:42;;;;;;;;;;;18.40;28.70;;;;;;4982475;28;19915;-69
2022/03/27 09:50:08;;;;;;;;;;;18.40;28.30;;;;;;4974743;28;20380;-63
2022/03/27 09:52:34;;;;;;;;;;;18.50;28.20;;;;;;4976913;28;19910;-70
2022/03/27 09:55:01;;;;;;;;;;;18.10;28.40;;;;;;4976393;28;19918;-61
2022/03/27 09:57:37;;;;;;;;;;;18.00;29.40;;;;;;4973987;28;19929;-65
2022/03/27 10:00:12;;;;;;;;;;;17.90;29.80;;;;;;4974353;28;19917;-67
2022/03/27 10:02:38;;;;;;;;;;;17.80;30.80;;;;;;4974809;28;20374;-64
2022/03/27 10:05:07;;;;;;;;;;;18.00;29.80;;;;;;4974372;28;19910;-63
2022/03/27 10:07:34;;;;;;;;;;;17.90;30.20;;;;;;4974347;28;19937;-66
2022/03/27 10:10:00;;;;;;;;;;;18.00;29.80;;;;;;4974275;28;19918;-61
2022/03/27 10:12:27;;;;;;;;;;;18.00;28.70;;;;;;4974740;28;19910;-61
2022/03/27 10:14:54;;;;;;;;;;;17.90;28.30;;;;;;4974746;28;20356;-66
2022/03/27 10:17:21;;;;;;;;;;;18.10;28.20;;;;;;4974524;28;19917;-63
2022/03/27 10:19:49;;;;;;;;;;;18.30;28.10;;;;;;4974509;28;19910;-64
2022/03/27 10:22:20;;;;;;;;;;;18.60;26.60;;;;;;4978392;28;19914;-63
2022/03/27 10:24:46;;;;;;;;;;;18.70;26.50;;;;;;4978637;28;19910;-63
2022/03/27 10:27:12;;;;;;;;;;;18.90;26.10;;;;;;4993318;28;19916;-70
2022/03/27 10:29:39;;;;;;;;;;;19.20;25.70;;;;;;4983051;28;20218;-65
2022/03/27 10:32:09;;;;;;;;;;;19.30;26.30;;;;;;4997214;28;19922;-62
2022/03/27 10:34:36;;;;;;;;;;;19.50;25.20;;;;;;4994705;28;19928;-62
2022/03/27 10:37:05;;;;;;;;;;;19.70;25.90;;;;;;4994697;28;19910;-61
2022/03/27 10:39:44;;;;;;;;;;;19.80;25.60;;;;;;4997216;28;19918;-62
2022/03/27 10:42:15;;;;;;;;;;;20.00;25.80;;;;;;4995626;28;19910;-66
2022/03/27 10:45:19;;;;;;;;;;;19.90;24.00;;;;;;4996960;28;19917;-63
2022/03/27 10:48:04;;;;;;;;;;;19.60;23.60;;;;;;4995578;28;19918;-66
2022/03/27 10:50:30;;;;;;;;;;;19.60;24.50;;;;;;4995002;28;19913;-62
2022/03/27 10:53:01;;;;;;;;;;;19.60;24.20;;;;;;4994852;28;20354;-65
2022/03/27 10:55:40;;;;;;;;;;;19.80;23.90;;;;;;4993771;28;19913;-62
2022/03/27 10:58:24;;;;;;;;;;;20.10;24.40;;;;;;4998299;28;19910;-67
2022/03/27 11:00:50;;;;;;;;;;;20.00;23.30;;;;;;4999493;28;19910;-66
2022/03/27 11:03:34;;;;;;;;;;;19.90;22.60;;;;;;4999264;28;19910;-60
2022/03/27 11:06:00;;;;;;;;;;;19.70;22.80;;;;;;4999893;28;20013;-62
2022/03/27 11:08:26;;;;;;;;;;;19.30;23.90;;;;;;5001679;28;19910;-60
2022/03/27 11:11:12;;;;;;;;;;;19.30;23.10;;;;;;5000531;28;19910;-59
2022/03/27 11:13:39;;;;;;;;;;;19.40;22.50;;;;;;4993404;28;19922;-65
2022/03/27 11:16:05;;;;;;;;;;;19.30;23.40;;;;;;4994530;28;19949;-61
2022/03/27 11:18:37;;;;;;;;;;;19.20;23.10;;;;;;4985054;28;19949;-62
2022/03/27 11:21:03;;;;;;;;;;;19.20;23.90;;;;;;4976553;28;20385;-59
2022/03/27 11:23:30;;;;;;;;;;;19.20;24.40;;;;;;4976878;28;19957;-62
2022/03/27 11:25:56;;;;;;;;;;;19.10;25.40;;;;;;4976759;28;19910;-62
2022/03/27 11:28:22;;;;;;;;;;;19.30;25.80;;;;;;4976419;28;19910;-65
2022/03/27 11:30:48;;;;;;;;;;;19.50;26.80;;;;;;4976350;28;20271;-67
2022/03/27 11:33:13;;;;;;;;;;;19.20;28.20;;;;;;4975341;28;19918;-64
2022/03/27 11:35:40;;;;;;;;;;;19.20;28.70;;;;;;4976779;28;19918;-62
2022/03/27 11:38:18;;;;;;;;;;;19.00;29.30;;;;;;4976297;28;19980;-70
2022/03/27 11:40:44;;;;;;;;;;;18.80;30.40;;;;;;4976343;28;19972;-67
2022/03/27 11:43:24;;;;;;;;;;;18.60;31.20;;;;;;4976213;28;19910;-59
2022/03/27 11:45:51;;;;;;;;;;;18.60;30.00;;;;;;4976274;28;20389;-59
2022/03/27 11:48:16;;;;;;;;;;;18.50;30.70;;;;;;4976231;28;19910;-60
2022/03/27 11:50:42;;;;;;;;;;;18.50;29.60;;;;;;4976294;28;19910;-60
2022/03/27 11:53:08;;;;;;;;;;;18.40;28.60;;;;;;4976138;28;19924;-60
2022/03/27 11:55:34;;;;;;;;;;;18.30;29.60;;;;;;4989062;28;19936;-61
2022/03/27 11:58:00;;;;;;;;;;;18.30;30.60;;;;;;4994982;28;19910;-63
2022/03/27 12:00:31;;;;;;;;;;;18.60;30.80;;;;;;4995930;28;19910;-62
2022/03/27 12:02:56;;;;;;;;;;;18.90;30.40;;;;;;4995989;28;20428;-63
2022/03/27 12:05:22;;;;;;;;;;;19.20;28.70;;;;;;4996412;28;19910;-61
2022/03/27 12:07:55;;;;;;;;;;;18.90;28.90;;;;;;5002414;28;19913;-64
2022/03/27 12:10:21;;;;;;;;;;;18.80;28.90;;;;;;5004092;28;19910;-60
2022/03/27 12:13:00;;;;;;;;;;;18.70;28.50;;;;;;4995136;28;19921;-59
2022/03/27 12:15:39;;;;;;;;;;;18.40;29.20;;;;;;4993878;28;19970;-59
2022/03/27 12:18:04;;;;;;;;;;;18.30;29.80;;;;;;4992485;28;19910;-59
2022/03/27 12:20:50;;;;;;;;;;;18.50;29.40;;;;;;4995181;28;20020;-59
2022/03/27 12:23:20;;;;;;;;;;;18.50;29.60;;;;;;4995099;28;19956;-62
2022/03/27 12:25:56;;;;;;;;;;;18.30;30.90;;;;;;4995298;28;19996;-61
2022/03/27 12:31:17;;;;;;;;;;;18.20;31.00;;;;;;4995105;28;20013;-62
2022/03/27 12:33:43;;;;;;;;;;;18.10;33.20;;;;;;4995201;28;19960;-62
2022/03/27 12:36:10;;;;;;;;;;;18.00;30.30;;;;;;4989544;28;19925;-62
2022/03/27 12:38:36;;;;;;;;;;;17.90;30.20;;;;;;4975304;28;19921;-63
2022/03/27 12:41:06;;;;;;;;;;;17.80;30.10;;;;;;4975357;28;20274;-65
2022/03/27 12:43:32;;;;;;;;;;;17.90;31.60;;;;;;4975525;28;19911;-65
2022/03/27 12:45:58;;;;;;;;;;;18.00;30.50;;;;;;4975332;28;19917;-65
2022/03/27 12:48:27;;;;;;;;;;;18.00;30.30;;;;;;4975580;28;20270;-63
2022/03/27 12:50:53;;;;;;;;;;;18.10;30.70;;;;;;4975441;28;19910;-63
2022/03/27 12:53:20;;;;;;;;;;;18.10;33.50;;;;;;4975398;28;19922;-72
2022/03/27 12:55:53;;;;;;;;;;;18.40;30.10;;;;;;4975327;28;19910;-64
2022/03/27 12:58:20;;;;;;;;;;;18.60;33.60;;;;;;4975437;28;19910;-64
2022/03/27 13:01:02;;;;;;;;;;;18.60;36.20;;;;;;4975171;28;19917;-63
2022/03/27 13:03:27;;;;;;;;;;;18.70;32.20;;;;;;4975255;28;19918;-63
2022/03/27 13:05:55;;;;;;;;;;;18.70;34.70;;;;;;4975255;28;20386;-62
2022/03/27 13:08:40;;;;;;;;;;;18.70;36.30;;;;;;4974994;28;19910;-63
2022/03/27 13:11:10;;;;;;;;;;;18.70;33.10;;;;;;4975104;28;20366;-68
2022/03/27 13:13:36;;;;;;;;;;;18.80;33.70;;;;;;4974882;28;20433;-62
2022/03/27 13:16:40;;;;;;;;;;;18.80;35.40;;;;;;4974829;28;19945;-61
2022/03/27 13:19:08;;;;;;;;;;;18.60;33.80;;;;;;4991885;28;19913;-62
2022/03/27 13:21:51;;;;;;;;;;;18.60;36.30;;;;;;4991993;28;19910;-62
2022/03/27 13:24:18;;;;;;;;;;;18.60;37.50;;;;;;4992035;28;19916;-64
2022/03/27 13:26:48;;;;;;;;;;;18.60;38.70;;;;;;4992043;28;19910;-69
2022/03/27 13:29:15;;;;;;;;;;;18.80;39.40;;;;;;4991947;28;20001;-61
2022/03/27 13:31:41;;;;;;;;;;;18.80;39.50;;;;;;4991597;28;19922;-61
2022/03/27 13:34:07;;;;;;;;;;;18.80;40.60;;;;;;4992015;28;20372;-62
2022/03/27 13:36:34;;;;;;;;;;;18.80;40.40;;;;;;4992315;28;20301;-65
2022/03/27 13:39:04;;;;;;;;;;;18.80;39.10;;;;;;4975768;28;19910;-61
2022/03/27 13:44:17;;;;;;;;;;;18.50;39.00;;;;;;4991725;28;19960;-61
2022/03/27 13:46:42;;;;;;;;;;;18.50;42.10;;;;;;4991848;28;20440;-74
2022/03/27 13:49:08;;;;;;;;;;;18.50;38.20;;;;;;4988117;28;19917;-62
2022/03/27 13:51:33;;;;;;;;;;;18.30;38.30;;;;;;4972459;28;19917;-66
2022/03/27 13:53:59;;;;;;;;;;;18.00;38.20;;;;;;4983693;28;19925;-74
2022/03/27 13:56:25;;;;;;;;;;;17.90;37.40;;;;;;4990981;28;19918;-69
2022/03/27 13:58:51;;;;;;;;;;;17.80;37.00;;;;;;4990916;28;19914;-63
2022/03/27 14:01:16;;;;;;;;;;;17.70;38.10;;;;;;4987376;28;19957;-69
2022/03/27 14:03:43;;;;;;;;;;;17.90;38.00;;;;;;4983237;28;19964;-71
2022/03/27 14:06:10;;;;;;;;;;;17.80;38.70;;;;;;4991590;28;19924;-66
2022/03/27 14:08:38;;;;;;;;;;;17.90;39.70;;;;;;4988288;28;19968;-73
2022/03/27 14:11:04;;;;;;;;;;;17.90;39.20;;;;;;4989102;28;19910;-66
2022/03/27 14:13:30;;;;;;;;;;;17.80;40.40;;;;;;4991652;28;19964;-62
2022/03/27 14:15:58;;;;;;;;;;;17.80;40.10;;;;;;4987301;28;19922;-63
2022/03/27 14:18:24;;;;;;;;;;;17.70;42.80;;;;;;4991801;28;19964;-71
2022/03/27 14:20:50;;;;;;;;;;;17.90;43.20;;;;;;4991195;28;20000;-70
2022/03/27 14:23:15;;;;;;;;;;;18.10;42.30;;;;;;4992253;28;19910;-60
2022/03/27 14:25:43;;;;;;;;;;;18.20;41.90;;;;;;4991348;28;19914;-68
2022/03/27 14:28:09;;;;;;;;;;;18.20;40.80;;;;;;4992801;28;19914;-72
2022/03/27 14:30:35;;;;;;;;;;;18.30;42.60;;;;;;4993158;28;19956;-65
2022/03/27 14:33:01;;;;;;;;;;;18.20;40.30;;;;;;4992855;28;19921;-60